Time;durP1;ratioP1;P1;durP2;ratioP2;P2;SDS_P1;SDS_P2;PMS_P1;PMS_P2;Temp;Humidity;BMP_temperature;BMP_pressure;BME280_temperature;BME280_humidity;BME280_pressure;Samples;Min_cycle;Max_cycle;Signal;HPM_P1;HPM_P2
2022/08/09 00:02:33;;;;;;;4.70;2.03;;;;;;;16.91;96.85;102618.50;5094587;28;20051;-55
2022/08/09 00:05:02;;;;;;;3.72;1.95;;;;;;;16.96;96.37;102616.41;5127506;27;20068;-57
2022/08/09 00:07:50;;;;;;;4.10;2.40;;;;;;;16.95;96.40;102622.66;5094747;28;20047;-57
2022/08/09 00:10:22;;;;;;;6.40;2.50;;;;;;;16.97;96.70;102618.09;5091507;28;20060;-63
2022/08/09 00:12:52;;;;;;;9.02;2.50;;;;;;;16.99;96.64;102624.19;5092619;28;20577;-62
2022/08/09 00:15:21;;;;;;;5.55;2.40;;;;;;;16.86;97.85;102623.22;5094487;28;20040;-62
2022/08/09 00:18:09;;;;;;;5.00;2.40;;;;;;;16.94;97.78;102626.28;5094413;28;20050;-63
2022/08/09 00:20:41;;;;;;;5.85;2.38;;;;;;;16.92;97.47;102622.88;5094610;28;20051;-62
2022/08/09 00:23:17;;;;;;;4.90;2.30;;;;;;;16.92;97.77;102617.56;5093401;28;20076;-63
2022/08/09 00:26:07;;;;;;;7.65;2.70;;;;;;;16.84;98.14;102614.50;5091443;28;20139;-62
2022/08/09 00:28:39;;;;;;;7.38;2.67;;;;;;;16.82;98.57;102625.22;5091707;28;20131;-62
2022/08/09 00:31:07;;;;;;;4.97;2.50;;;;;;;16.76;99.35;102620.31;5092790;28;20082;-62
2022/08/09 00:33:56;;;;;;;6.22;3.15;;;;;;;16.73;99.25;102618.69;5093914;28;20117;-62
2022/08/09 00:36:25;;;;;;;5.80;2.53;;;;;;;16.71;99.19;102615.28;5094022;28;20530;-56
2022/08/09 00:38:57;;;;;;;5.78;2.55;;;;;;;16.67;99.77;102619.06;5093705;28;20127;-63
2022/08/09 00:41:27;;;;;;;7.35;2.60;;;;;;;16.69;99.67;102621.66;5090975;28;20036;-61
2022/08/09 00:44:16;;;;;;;5.68;2.70;;;;;;;16.65;99.87;102625.44;5091844;28;20360;-57
2022/08/09 00:46:53;;;;;;;8.95;3.10;;;;;;;16.65;99.83;102623.63;5093886;28;20105;-62
2022/08/09 00:49:25;;;;;;;6.05;2.75;;;;;;;16.53;100.00;102616.44;5092155;28;20051;-62
2022/08/09 00:51:55;;;;;;;4.65;2.58;;;;;;;16.58;100.00;102619.66;5093617;28;20437;-62
2022/08/09 00:54:24;;;;;;;8.25;3.25;;;;;;;16.45;100.00;102618.72;5093615;28;20048;-62
2022/08/09 00:57:05;;;;;;;5.13;2.67;;;;;;;16.46;100.00;102618.63;5093743;28;20050;-61
2022/08/09 00:59:38;;;;;;;4.90;2.60;;;;;;;16.47;100.00;102619.47;5093027;28;20042;-56
2022/08/09 01:02:18;;;;;;;7.28;3.10;;;;;;;16.38;100.00;102623.56;5091027;28;20032;-62
2022/08/09 01:04:53;;;;;;;5.25;3.00;;;;;;;16.44;100.00;102628.47;5091340;28;20044;-56
2022/08/09 01:07:31;;;;;;;8.05;2.92;;;;;;;16.41;100.00;102627.81;5091353;28;20581;-62
2022/08/09 01:10:30;;;;;;;7.45;3.25;;;;;;;16.32;100.00;102619.47;5090193;28;20044;-57
2022/08/09 01:13:07;;;;;;;7.63;3.17;;;;;;;16.26;100.00;102629.63;5093100;28;20533;-54
2022/08/09 01:15:43;;;;;;;8.60;3.40;;;;;;;16.36;100.00;102634.28;5091834;28;20059;-55
2022/08/09 01:18:26;;;;;;;8.00;3.38;;;;;;;16.36;100.00;102631.63;5093139;28;20443;-58
2022/08/09 01:21:14;;;;;;;9.35;3.58;;;;;;;16.36;100.00;102628.97;5093287;28;20044;-57
2022/08/09 01:23:55;;;;;;;7.00;3.72;;;;;;;16.29;100.00;102630.28;5092981;28;20044;-57
2022/08/09 01:27:00;;;;;;;8.60;3.20;;;;;;;16.20;100.00;102631.69;5093008;28;20048;-62
2022/08/09 01:29:33;;;;;;;6.05;3.25;;;;;;;16.24;100.00;102629.72;5088218;28;20052;-57
2022/08/09 01:32:24;;;;;;;11.68;4.10;;;;;;;16.22;100.00;102629.81;5091394;28;20543;-57
2022/08/09 01:35:02;;;;;;;7.07;3.53;;;;;;;16.16;100.00;102630.16;5091274;28;20054;-62
2022/08/09 01:37:53;;;;;;;9.23;3.75;;;;;;;16.17;100.00;102633.66;5090386;28;20482;-62
2022/08/09 01:40:44;;;;;;;6.78;3.90;;;;;;;16.07;100.00;102633.38;5092650;28;20419;-62
2022/08/09 01:43:33;;;;;;;10.15;4.03;;;;;;;16.04;100.00;102637.06;5092550;28;20084;-57
2022/08/09 01:46:21;;;;;;;10.02;4.03;;;;;;;15.98;100.00;102631.28;5089810;28;20044;-57
2022/08/09 01:48:57;;;;;;;7.35;4.03;;;;;;;15.87;100.00;102626.63;5091357;28;20597;-62
2022/08/09 01:51:37;;;;;;;;;;;;;;;15.91;100.00;102630.81;5090684;28;20067;-62
2022/08/09 01:54:10;;;;;;;11.02;4.20;;;;;;;15.94;100.00;102635.06;5088557;28;19920;-57
2022/08/09 01:56:42;;;;;;;7.88;4.15;;;;;;;15.94;100.00;102630.63;5092520;28;20095;-55
2022/08/09 01:59:22;;;;;;;15.63;4.63;;;;;;;15.86;100.00;102630.22;5092338;28;20475;-62
2022/08/09 02:01:53;;;;;;;8.35;4.28;;;;;;;15.92;100.00;102636.97;5092471;28;20047;-55
2022/08/09 02:04:29;;;;;;;7.63;4.20;;;;;;;15.91;100.00;102640.56;5092543;28;20060;-57
2022/08/09 02:07:14;;;;;;;8.93;4.50;;;;;;;15.85;100.00;102644.44;5091068;28;20097;-56
2022/08/09 02:10:07;;;;;;;9.02;4.10;;;;;;;15.85;100.00;102641.78;5091425;28;20052;-62
2022/08/09 02:12:38;;;;;;;7.97;4.50;;;;;;;15.73;100.00;102635.34;5092147;28;20426;-61
2022/08/09 02:15:10;;;;;;;11.90;4.40;;;;;;;15.74;100.00;102637.06;5091741;28;20048;-56
2022/08/09 02:17:45;;;;;;;7.20;4.55;;;;;;;15.68;100.00;102635.63;5092214;28;20044;-62
2022/08/09 02:20:37;;;;;;;9.18;4.57;;;;;;;15.64;100.00;102634.09;5090329;28;20073;-62
2022/08/09 02:23:08;;;;;;;7.95;4.90;;;;;;;15.61;100.00;102636.06;5088431;28;20106;-55
2022/08/09 02:25:41;;;;;;;12.02;5.07;;;;;;;15.60;100.00;102629.94;5091376;28;20048;-56
2022/08/09 02:28:27;;;;;;;9.35;4.72;;;;;;;15.64;100.00;102635.91;5092422;28;20055;-62
2022/08/09 02:31:03;;;;;;;9.90;5.03;;;;;;;15.67;100.00;102633.91;5092371;28;20063;-57
2022/08/09 02:33:37;;;;;;;9.93;5.32;;;;;;;15.63;100.00;102621.78;5090921;28;20048;-56
2022/08/09 02:36:31;;;;;;;8.57;5.43;;;;;;;15.61;100.00;102623.69;5088169;28;20064;-57
2022/08/09 02:39:03;;;;;;;10.07;5.50;;;;;;;15.67;100.00;102628.63;5089578;28;20067;-62
2022/08/09 02:41:38;;;;;;;10.43;5.25;;;;;;;15.61;100.00;102625.47;5091828;28;20134;-55
2022/08/09 02:44:10;;;;;;;9.10;5.45;;;;;;;15.56;100.00;102631.03;5091703;28;20064;-57
2022/08/09 02:47:03;;;;;;;9.07;5.55;;;;;;;15.46;100.00;102624.56;5091821;28;20051;-61
2022/08/09 02:49:36;;;;;;;9.48;5.47;;;;;;;15.46;100.00;102617.47;5091558;28;20040;-62
2022/08/09 02:52:07;;;;;;;10.48;5.47;;;;;;;15.52;100.00;102624.22;5091444;28;20094;-57
2022/08/09 02:54:37;;;;;;;12.13;5.40;;;;;;;15.49;100.00;102619.94;5091396;28;20135;-54
2022/08/09 02:57:22;;;;;;;8.95;5.68;;;;;;;15.48;100.00;102615.56;5092264;28;20560;-54
2022/08/09 02:59:53;;;;;;;9.98;5.85;;;;;;;15.48;100.00;102618.22;5091981;28;20052;-61
2022/08/09 03:02:47;;;;;;;10.05;5.95;;;;;;;15.45;100.00;102612.25;5089505;28;20047;-54
2022/08/09 03:05:26;;;;;;;11.00;5.90;;;;;;;15.35;100.00;102618.09;5088424;28;20051;-55
2022/08/09 03:07:55;;;;;;;10.07;5.78;;;;;;;15.36;100.00;102610.97;5092091;28;20552;-55
2022/08/09 03:10:26;;;;;;;10.27;6.40;;;;;;;15.32;100.00;102606.81;5091669;28;20048;-60
2022/08/09 03:12:56;;;;;;;9.57;6.00;;;;;;;15.30;100.00;102606.88;5092199;28;20047;-61
2022/08/09 03:15:25;;;;;;;9.32;5.88;;;;;;;15.25;100.00;102613.41;5092120;28;20497;-54
2022/08/09 03:18:17;;;;;;;11.38;6.50;;;;;;;15.24;100.00;102603.72;5091913;28;20052;-56
2022/08/09 03:20:59;;;;;;;11.02;5.93;;;;;;;15.32;100.00;102614.75;5092270;28;20044;-55
2022/08/09 03:23:28;;;;;;;9.25;6.07;;;;;;;15.31;100.00;102610.38;5095133;28;20072;-55
2022/08/09 03:25:59;;;;;;;12.45;7.05;;;;;;;15.30;100.00;102617.50;5095456;28;20548;-63
2022/08/09 03:28:33;;;;;;;10.77;6.25;;;;;;;15.25;100.00;102616.06;5095520;28;20109;-55
2022/08/09 03:31:02;;;;;;;11.75;6.78;;;;;;;15.24;100.00;102615.19;5095063;28;20056;-62
2022/08/09 03:33:50;;;;;;;10.93;6.97;;;;;;;15.20;100.00;102625.13;5094049;28;20047;-62
2022/08/09 03:36:24;;;;;;;11.10;7.25;;;;;;;15.10;100.00;102615.13;5092145;28;20125;-55
2022/08/09 03:38:55;;;;;;;12.18;6.82;;;;;;;15.11;100.00;102614.19;5095106;28;20059;-61
2022/08/09 03:41:24;;;;;;;11.98;6.95;;;;;;;15.08;100.00;102619.63;5092978;28;20052;-62
2022/08/09 03:44:11;;;;;;;11.88;7.00;;;;;;;15.01;100.00;102621.78;5093690;28;20471;-56
2022/08/09 03:46:42;;;;;;;11.85;6.95;;;;;;;15.03;100.00;102618.09;5095605;28;20535;-61
2022/08/09 03:49:13;;;;;;;11.90;7.25;;;;;;;15.07;100.00;102621.44;5094708;28;20046;-56
2022/08/09 03:51:51;;;;;;;11.70;6.55;;;;;;;15.11;100.00;102614.19;5091693;28;20039;-53
2022/08/09 03:54:29;;;;;;;10.82;6.63;;;;;;;15.12;100.00;102624.69;5094023;28;20078;-62
2022/08/09 03:57:01;;;;;;;11.52;6.88;;;;;;;15.07;100.00;102620.59;5093067;28;20047;-56
2022/08/09 03:59:46;;;;;;;11.38;6.88;;;;;;;15.09;100.00;102618.72;5093927;28;20054;-54
2022/08/09 04:02:24;;;;;;;11.48;7.10;;;;;;;15.17;100.00;102624.44;5093187;28;20153;-61
2022/08/09 04:04:57;;;;;;;;;;;;;;;15.13;100.00;102625.53;5092372;28;20378;-62
2022/08/09 04:07:28;;;;;;;11.63;7.22;;;;;;;15.02;100.00;102636.75;5093393;28;19924;-54
2022/08/09 04:10:17;;;;;;;13.52;7.60;;;;;;;14.93;100.00;102630.16;5094964;28;20036;-62
2022/08/09 04:12:50;;;;;;;14.20;7.72;;;;;;;14.90;100.00;102624.19;5094796;28;20453;-57
2022/08/09 04:15:21;;;;;;;15.52;7.53;;;;;;;14.96;100.00;102626.50;5094765;28;20048;-55
2022/08/09 04:18:09;;;;;;;13.20;7.38;;;;;;;14.95;100.00;102625.63;5095022;28;20340;-62
2022/08/09 04:20:46;;;;;;;13.23;7.80;;;;;;;14.92;100.00;102624.97;5095111;28;20075;-62
2022/08/09 04:23:14;;;;;;;13.35;7.85;;;;;;;14.81;100.00;102626.41;5094739;28;20432;-62
2022/08/09 04:25:45;;;;;;;11.57;7.25;;;;;;;14.86;100.00;102627.00;5092699;28;20044;-56
2022/08/09 04:28:21;;;;;;;14.77;8.35;;;;;;;14.82;100.00;102635.19;5090848;28;20052;-62
2022/08/09 04:31:06;;;;;;;11.93;8.05;;;;;;;14.82;100.00;102629.88;5094033;28;20071;-56
2022/08/09 04:33:41;;;;;;;10.45;7.22;;;;;;;14.88;100.00;102635.69;5093301;28;20139;-61
2022/08/09 04:36:24;;;;;;;13.18;8.40;;;;;;;14.88;100.00;102633.06;5092687;28;20075;-63
2022/08/09 04:38:52;;;;;;;14.32;7.82;;;;;;;14.83;100.00;102639.56;5090506;28;20060;-55
2022/08/09 04:41:21;;;;;;;16.40;8.18;;;;;;;14.83;100.00;102639.56;5094011;28;20040;-62
2022/08/09 04:43:52;;;;;;;12.02;7.50;;;;;;;14.80;100.00;102647.69;5094378;28;20492;-62
2022/08/09 04:46:37;;;;;;;12.05;7.13;;;;;;;14.79;100.00;102649.47;5093959;28;20040;-54
2022/08/09 04:49:26;;;;;;;16.15;7.88;;;;;;;14.80;100.00;102658.28;5094285;28;20549;-62
2022/08/09 04:52:15;;;;;;;13.88;7.90;;;;;;;14.79;100.00;102659.19;5093569;28;20489;-62
2022/08/09 04:54:50;;;;;;;14.50;7.63;;;;;;;14.80;100.00;102659.09;5091620;28;20451;-62
2022/08/09 04:57:19;;;;;;;14.30;7.82;;;;;;;14.84;100.00;102660.66;5093033;28;20087;-55
2022/08/09 04:59:52;;;;;;;12.65;8.23;;;;;;;14.82;100.00;102661.66;5092839;28;20052;-53
2022/08/09 05:02:21;;;;;;;11.95;6.97;;;;;;;14.81;100.00;102666.13;5093994;28;20526;-56
2022/08/09 05:04:49;;;;;;;15.45;7.47;;;;;;;14.81;100.00;102666.13;5093543;28;20044;-62
2022/08/09 05:07:25;;;;;;;11.98;6.97;;;;;;;14.82;100.00;102661.66;5092443;28;20085;-53
2022/08/09 05:09:56;;;;;;;11.85;7.38;;;;;;;14.85;100.00;102672.13;5092365;28;20048;-56
2022/08/09 05:12:28;;;;;;;13.32;7.95;;;;;;;14.90;100.00;102664.75;5092617;28;20147;-62
2022/08/09 05:14:57;;;;;;;15.95;8.20;;;;;;;14.90;100.00;102674.50;5093593;28;20044;-54
2022/08/09 05:17:26;;;;;;;12.82;7.75;;;;;;;14.97;100.00;102674.09;5093374;28;20066;-62
2022/08/09 05:20:14;;;;;;;14.02;8.13;;;;;;;14.98;100.00;102670.53;5093233;28;20249;-56
2022/08/09 05:22:43;;;;;;;15.73;7.88;;;;;;;15.02;100.00;102665.88;5090355;28;20044;-56
2022/08/09 05:25:31;;;;;;;12.43;7.18;;;;;;;15.04;100.00;102670.16;5092003;28;20051;-62
2022/08/09 05:28:02;;;;;;;11.15;7.18;;;;;;;15.16;100.00;102668.63;5093458;28;20051;-64
2022/08/09 05:30:30;;;;;;;13.93;8.07;;;;;;;15.18;100.00;102676.50;5093298;28;20511;-64
2022/08/09 05:32:59;;;;;;;13.02;7.50;;;;;;;15.21;100.00;102682.50;5092695;28;20058;-63
2022/08/09 05:35:29;;;;;;;11.32;7.05;;;;;;;15.30;100.00;102691.72;5093282;28;20052;-62
2022/08/09 05:38:07;;;;;;;15.00;8.00;;;;;;;15.31;100.00;102689.91;5092466;28;20056;-63
2022/08/09 05:40:35;;;;;;;16.38;7.57;;;;;;;15.35;100.00;102694.97;5090392;28;20058;-55
2022/08/09 05:43:03;;;;;;;11.88;7.03;;;;;;;15.42;100.00;102689.31;5091857;28;20052;-63
2022/08/09 05:45:31;;;;;;;12.68;6.60;;;;;;;15.46;100.00;102693.50;5091186;28;20407;-56
2022/08/09 05:48:19;;;;;;;13.20;7.20;;;;;;;15.53;100.00;102695.72;5092714;28;20052;-63
2022/08/09 05:50:54;;;;;;;13.18;7.72;;;;;;;15.60;100.00;102693.56;5092782;28;20527;-57
2022/08/09 05:53:44;;;;;;;10.40;6.50;;;;;;;15.72;100.00;102698.16;5090334;28;20054;-56
2022/08/09 05:56:26;;;;;;;12.48;6.50;;;;;;;15.82;100.00;102689.72;5089951;28;20052;-56
2022/08/09 05:58:57;;;;;;;12.40;6.65;;;;;;;15.93;100.00;102699.69;5092417;28;20093;-63
2022/08/09 06:01:27;;;;;;;12.43;7.20;;;;;;;16.00;100.00;102699.22;5092382;28;20051;-56
2022/08/09 06:04:09;;;;;;;11.35;6.47;;;;;;;16.07;100.00;102701.53;5092278;28;20048;-56
2022/08/09 06:06:39;;;;;;;10.68;7.10;;;;;;;16.13;100.00;102703.81;5092220;28;20063;-56
2022/08/09 06:09:18;;;;;;;12.23;6.32;;;;;;;16.23;100.00;102700.50;5088428;28;20040;-63
2022/08/09 06:12:06;;;;;;;12.13;7.45;;;;;;;16.31;100.00;102702.72;5091355;28;20043;-62
2022/08/09 06:14:35;;;;;;;10.88;6.50;;;;;;;16.40;100.00;102701.28;5092803;28;20115;-63
2022/08/09 06:17:04;;;;;;;10.13;6.50;;;;;;;16.46;100.00;102698.28;5091090;28;20463;-63
2022/08/09 06:19:37;;;;;;;12.63;6.85;;;;;;;16.58;100.00;102699.34;5092572;28;20100;-56
2022/08/09 06:22:06;;;;;;;13.88;5.95;;;;;;;16.65;100.00;102703.31;5092366;28;20048;-57
2022/08/09 06:24:43;;;;;;;13.25;6.05;;;;;;;16.73;100.00;102708.16;5091967;28;20055;-56
2022/08/09 06:27:13;;;;;;;10.18;6.30;;;;;;;16.86;100.00;102709.09;5089255;28;20043;-57
2022/08/09 06:29:43;;;;;;;12.15;6.40;;;;;;;16.95;100.00;102713.03;5089999;28;20047;-64
2022/08/09 06:32:25;;;;;;;8.77;5.53;;;;;;;17.08;100.00;102710.44;5092336;28;20040;-57
2022/08/09 06:35:13;;;;;;;11.52;5.65;;;;;;;17.24;100.00;102720.94;5089897;28;20797;-64
2022/08/09 06:37:42;;;;;;;8.95;5.20;;;;;;;17.36;100.00;102721.97;5086960;28;20083;-64
2022/08/09 06:40:31;;;;;;;11.00;5.30;;;;;;;17.50;100.00;102721.91;5091764;28;20048;-63
2022/08/09 06:43:00;;;;;;;8.45;4.63;;;;;;;17.65;100.00;102714.75;5092302;28;20565;-57
2022/08/09 06:45:30;;;;;;;8.65;4.95;;;;;;;17.74;100.00;102714.13;5091970;28;20472;-64
2022/08/09 06:48:17;;;;;;;9.48;4.55;;;;;;;17.89;100.00;102714.09;5088922;28;20059;-64
2022/08/09 06:50:58;;;;;;;9.95;4.88;;;;;;;17.94;100.00;102719.97;5089781;28;20130;-64
2022/08/09 06:53:26;;;;;;;9.98;4.55;;;;;;;18.00;100.00;102711.59;5089861;28;20487;-61
2022/08/09 06:56:07;;;;;;;8.32;4.55;;;;;;;18.15;100.00;102716.84;5089029;28;20471;-64
2022/08/09 06:58:37;;;;;;;8.85;4.53;;;;;;;18.22;98.90;102715.44;5095199;28;20052;-57
2022/08/09 07:01:25;;;;;;;8.90;4.50;;;;;;;18.39;98.52;102730.25;5095607;28;20067;-58
2022/08/09 07:04:13;;;;;;;8.20;3.85;;;;;;;18.58;97.46;102740.50;5095656;28;20052;-58
2022/08/09 07:06:47;;;;;;;8.25;3.80;;;;;;;18.74;95.78;102729.63;5095796;28;20105;-63
2022/08/09 07:09:20;;;;;;;8.73;4.03;;;;;;;18.87;94.65;102726.94;5094258;28;20048;-57
2022/08/09 07:12:10;;;;;;;9.40;4.03;;;;;;;18.98;94.13;102727.06;5095552;28;20574;-63
2022/08/09 07:14:45;;;;;;;7.80;3.72;;;;;;;19.14;92.98;102724.16;5095508;28;20097;-58
2022/08/09 07:17:19;;;;;;;8.63;3.50;;;;;;;19.28;91.64;102730.28;5095393;28;20044;-64
2022/08/09 07:19:48;;;;;;;7.43;3.90;;;;;;;19.44;91.47;102733.53;5093487;28;20550;-64
2022/08/09 07:22:18;;;;;;;7.28;3.78;;;;;;;19.61;90.50;102720.81;5092422;28;20078;-63
2022/08/09 07:25:02;;;;;;;7.25;3.30;;;;;;;19.76;89.23;102724.97;5095451;28;20118;-64
2022/08/09 07:27:38;;;;;;;8.15;3.22;;;;;;;19.87;88.21;102730.38;5095184;28;20497;-58
2022/08/09 07:30:12;;;;;;;6.35;3.05;;;;;;;20.01;87.38;102726.66;5092271;28;20047;-64
2022/08/09 07:32:41;;;;;;;7.78;3.80;;;;;;;20.09;86.20;102723.44;5093966;28;20619;-59
2022/08/09 07:35:11;;;;;;;6.75;3.10;;;;;;;20.25;87.21;102731.97;5095165;28;20044;-57
2022/08/09 07:37:42;;;;;;;6.57;3.13;;;;;;;20.41;86.28;102733.44;5093827;28;20528;-58
2022/08/09 07:40:14;;;;;;;7.18;3.05;;;;;;;20.60;83.93;102728.38;5094522;28;20044;-58
2022/08/09 07:42:54;;;;;;;6.65;2.65;;;;;;;20.72;83.03;102739.97;5092559;28;20052;-64
2022/08/09 07:45:27;;;;;;;6.55;3.20;;;;;;;20.82;83.23;102739.22;5092281;28;20055;-58
2022/08/09 07:48:08;;;;;;;4.35;2.28;;;;;;;21.04;81.69;102733.88;5093518;28;20056;-65
2022/08/09 07:50:57;;;;;;;6.00;2.50;;;;;;;21.29;81.45;102726.53;5090736;28;20076;-58
2022/08/09 07:53:45;;;;;;;6.22;2.45;;;;;;;21.41;81.09;102725.53;5094723;28;20047;-64
2022/08/09 07:56:34;;;;;;;4.72;2.08;;;;;;;21.66;78.89;102720.84;5092592;28;20044;-64
2022/08/09 07:59:07;;;;;;;7.50;1.87;;;;;;;21.78;76.89;102717.13;5092154;28;20104;-63
2022/08/09 08:01:54;;;;;;;7.05;2.10;;;;;;;21.98;76.46;102719.13;5094655;28;20102;-63
2022/08/09 08:04:23;;;;;;;5.30;2.00;;;;;;;22.12;75.07;102725.00;5094563;28;20046;-64
2022/08/09 08:06:59;;;;;;;5.22;2.15;;;;;;;22.19;73.68;102724.50;5093218;28;20048;-58
2022/08/09 08:09:42;;;;;;;3.95;1.85;;;;;;;22.27;74.30;102733.56;5090809;28;20131;-58
2022/08/09 08:12:21;;;;;;;6.13;1.60;;;;;;;22.33;72.59;102734.84;5090748;28;20052;-57
2022/08/09 08:15:03;;;;;;;3.28;1.60;;;;;;;22.50;70.37;102732.59;5094607;28;20539;-58
2022/08/09 08:17:31;;;;;;;3.40;1.70;;;;;;;22.57;70.13;102733.75;5094282;28;20052;-61
2022/08/09 08:20:20;;;;;;;3.63;1.77;;;;;;;22.57;70.62;102723.88;5094327;28;20047;-63
2022/08/09 08:22:58;;;;;;;4.32;1.45;;;;;;;22.87;71.41;102726.69;5094220;28;20170;-64
2022/08/09 08:25:34;;;;;;;4.13;1.38;;;;;;;23.17;69.15;102725.81;5093926;28;20097;-63
2022/08/09 08:28:11;;;;;;;3.83;1.30;;;;;;;23.36;65.60;102729.53;5093795;28;20052;-61
2022/08/09 08:30:43;;;;;;;6.10;1.58;;;;;;;23.56;64.73;102715.13;5091535;28;20068;-64
2022/08/09 08:33:14;;;;;;;3.53;1.30;;;;;;;23.69;64.45;102730.13;5091518;28;20080;-61
2022/08/09 08:35:53;;;;;;;5.28;1.50;;;;;;;23.77;63.19;102739.16;5093862;28;20882;-58
2022/08/09 08:38:28;;;;;;;4.53;1.55;;;;;;;23.92;62.17;102728.84;5094011;28;20056;-60
2022/08/09 08:40:57;;;;;;;3.47;1.52;;;;;;;23.90;59.06;102724.59;5093856;28;20047;-63
2022/08/09 08:43:26;;;;;;;3.67;1.65;;;;;;;23.89;62.28;102725.63;5093175;28;20514;-58
2022/08/09 08:46:03;;;;;;;4.05;1.63;;;;;;;24.04;63.01;102729.56;5089960;28;20036;-63
2022/08/09 08:48:52;;;;;;;3.80;1.35;;;;;;;24.29;60.95;102727.25;5093026;28;20048;-63
2022/08/09 08:51:21;;;;;;;5.03;1.38;;;;;;;24.31;58.31;102727.97;5093715;28;20055;-63
2022/08/09 08:53:51;;;;;;;5.55;1.50;;;;;;;24.56;59.18;102744.44;5093969;28;20040;-57
2022/08/09 08:56:36;;;;;;;4.15;1.38;;;;;;;24.57;57.25;102740.72;5092324;28;20380;-64
2022/08/09 08:59:09;;;;;;;3.20;1.20;;;;;;;24.56;57.56;102742.59;5093965;28;20055;-57
2022/08/09 09:01:50;;;;;;;3.17;1.08;;;;;;;24.68;55.42;102735.22;5093226;28;20125;-65
2022/08/09 09:04:28;;;;;;;2.60;0.88;;;;;;;25.08;55.51;102746.63;5091012;28;20603;-62
2022/08/09 09:07:09;;;;;;;2.03;0.93;;;;;;;25.30;54.52;102734.59;5090870;28;20036;-62
2022/08/09 09:09:41;;;;;;;4.25;1.42;;;;;;;25.37;53.93;102740.25;5093618;28;20062;-58
2022/08/09 09:12:31;;;;;;;3.70;1.10;;;;;;;25.58;52.33;102732.72;5089700;28;20044;-63
2022/08/09 09:15:03;;;;;;;2.90;0.90;;;;;;;25.58;50.80;102742.66;5091105;28;20138;-58
2022/08/09 09:17:35;;;;;;;2.38;0.85;;;;;;;25.63;52.38;102730.41;5093038;28;20128;-63
2022/08/09 09:20:20;;;;;;;2.38;1.05;;;;;;;25.74;51.85;102739.25;5092388;28;20052;-58
2022/08/09 09:22:53;;;;;;;3.00;0.90;;;;;;;25.86;49.39;102738.00;5092029;28;20534;-57
2022/08/09 09:25:36;;;;;;;3.60;1.10;;;;;;;26.10;48.35;102736.53;5090175;28;20059;-58
2022/08/09 09:28:33;;;;;;;4.53;1.10;;;;;;;25.98;48.23;102730.53;5092037;28;20440;-62
2022/08/09 09:31:23;;;;;;;3.60;0.90;;;;;;;26.01;47.54;102721.28;5092829;28;20495;-62
2022/08/09 09:34:13;;;;;;;2.78;0.90;;;;;;;26.29;48.75;102722.84;5092914;28;20048;-62
2022/08/09 09:36:45;;;;;;;2.47;0.70;;;;;;;26.52;46.65;102722.31;5092858;28;20048;-63
2022/08/09 09:39:23;;;;;;;4.32;1.17;;;;;;;26.59;43.77;102730.59;5092877;28;20130;-62
2022/08/09 09:42:22;;;;;;;5.43;1.25;;;;;;;26.80;45.89;102725.66;5092780;28;20036;-62
2022/08/09 09:44:56;;;;;;;2.08;0.77;;;;;;;27.09;46.32;102735.22;5092900;28;20070;-57
2022/08/09 09:47:26;;;;;;;2.45;1.20;;;;;;;27.22;46.09;102731.19;5088471;28;20442;-57
2022/08/09 09:49:58;;;;;;;2.58;0.90;;;;;;;27.43;45.25;102725.34;5089041;28;20052;-57
2022/08/09 09:52:53;;;;;;;3.17;1.02;;;;;;;27.47;42.76;102743.78;5092304;28;20044;-57
2022/08/09 09:55:24;;;;;;;2.20;0.80;;;;;;;27.33;44.04;102741.66;5090198;28;20052;-58
2022/08/09 09:58:02;;;;;;;3.83;1.13;;;;;;;27.13;43.35;102735.72;5089465;28;20134;-62
2022/08/09 10:00:48;;;;;;;2.55;1.00;;;;;;;27.33;42.98;102741.66;5092630;28;20048;-62
2022/08/09 10:03:42;;;;;;;2.78;0.80;;;;;;;27.33;43.12;102733.56;5090760;28;20775;-63
2022/08/09 10:06:27;;;;;;;6.68;1.10;;;;;;;27.41;43.40;102733.63;5088979;28;20463;-58
2022/08/09 10:09:01;;;;;;;2.55;0.85;;;;;;;27.24;42.54;102742.66;5092778;28;20090;-57
2022/08/09 10:11:57;;;;;;;1.00;0.73;;;;;;;27.53;42.24;102735.97;5092412;28;20051;-57
2022/08/09 10:14:40;;;;;;;3.40;1.00;;;;;;;27.70;41.57;102732.28;5088734;28;20469;-58
2022/08/09 10:17:17;;;;;;;2.38;0.80;;;;;;;27.68;41.05;102734.31;5090218;28;20048;-60
2022/08/09 10:20:22;;;;;;;3.05;0.80;;;;;;;27.62;40.92;102733.16;5091292;28;20040;-58
2022/08/09 10:23:16;;;;;;;4.88;0.90;;;;;;;27.74;40.33;102733.63;5088690;28;20044;-57
2022/08/09 10:25:51;;;;;;;3.00;0.88;;;;;;;27.96;39.59;102725.84;5092491;28;20525;-57
2022/08/09 10:28:40;;;;;;;1.38;0.90;;;;;;;28.05;39.09;102718.63;5092392;28;20378;-58
2022/08/09 10:31:09;;;;;;;3.50;0.77;;;;;;;28.06;39.48;102720.28;5092632;28;20044;-57
2022/08/09 10:33:57;;;;;;;3.08;1.00;;;;;;;27.82;39.48;102712.00;5095526;28;20475;-63
2022/08/09 10:36:38;;;;;;;4.13;1.42;;;;;;;27.82;38.39;102711.16;5093307;28;20083;-57
2022/08/09 10:39:08;;;;;;;4.03;1.00;;;;;;;28.19;38.73;102714.38;5095020;28;20197;-62
2022/08/09 10:41:46;;;;;;;4.85;0.98;;;;;;;28.41;37.96;102719.03;5096140;28;20056;-61
2022/08/09 10:44:19;;;;;;;2.80;0.93;;;;;;;28.47;39.14;102717.50;5094924;28;20135;-58
2022/08/09 10:47:22;;;;;;;2.53;0.93;;;;;;;28.58;39.83;102709.00;5096092;28;20044;-62
2022/08/09 10:50:21;;;;;;;1.65;0.80;;;;;;;28.17;39.18;102706.44;5096294;28;20052;-62
2022/08/09 10:53:08;;;;;;;2.28;0.88;;;;;;;28.17;39.40;102718.09;5095982;28;20072;-63
2022/08/09 10:55:39;;;;;;;1.58;0.70;;;;;;;28.40;39.12;102708.38;5096125;28;20048;-61
2022/08/09 10:58:30;;;;;;;1.25;0.80;;;;;;;28.82;37.36;102708.09;5095827;28;20056;-62
2022/08/09 11:01:01;;;;;;;3.15;0.80;;;;;;;28.88;38.42;102701.13;5095981;28;20122;-63
2022/08/09 11:04:21;;;;;;;2.25;0.90;;;;;;;29.16;38.11;102701.47;5095956;28;20051;-58
2022/08/09 11:07:30;;;;;;;4.78;1.10;;;;;;;28.82;38.13;102705.38;5095989;28;20063;-63
2022/08/09 11:10:55;;;;;;;3.90;0.82;;;;;;;29.13;37.22;102703.69;5095803;28;20097;-58
2022/08/09 11:13:27;;;;;;;3.85;0.90;;;;;;;29.18;36.48;102698.56;5095733;28;20510;-57
2022/08/09 11:16:33;;;;;;;2.72;0.82;;;;;;;29.28;37.35;102701.06;5095644;28;20050;-59
2022/08/09 11:19:04;;;;;;;3.20;1.10;;;;;;;29.40;36.71;102705.03;5095506;28;20431;-59
2022/08/09 11:21:51;;;;;;;2.33;0.70;;;;;;;29.00;36.67;102702.41;5095277;28;20052;-63
2022/08/09 11:25:07;;;;;;;2.08;0.75;;;;;;;29.29;35.84;102698.19;5095236;28;20063;-59
2022/08/09 11:27:40;;;;;;;1.65;0.77;;;;;;;29.63;36.30;102691.47;5095017;28;20044;-63
2022/08/09 11:30:33;;;;;;;2.30;0.80;;;;;;;30.00;35.93;102686.25;5095040;28;20132;-60
2022/08/09 11:33:05;;;;;;;2.90;0.82;;;;;;;29.91;35.67;102693.59;5095220;28;20437;-64
2022/08/09 11:35:37;;;;;;;2.08;0.73;;;;;;;29.98;35.42;102686.44;5092924;28;20054;-59
2022/08/09 11:38:20;;;;;;;2.50;0.85;;;;;;;30.16;34.66;102682.53;5091536;28;20492;-63
2022/08/09 11:40:50;;;;;;;2.35;0.80;;;;;;;30.42;34.67;102684.75;5095214;28;20456;-59
2022/08/09 11:43:41;;;;;;;2.17;0.80;;;;;;;30.57;33.24;102675.75;5093362;28;20082;-62
2022/08/09 11:46:10;;;;;;;2.20;0.80;;;;;;;30.70;33.13;102669.66;5095080;28;20395;-62
2022/08/09 11:48:49;;;;;;;2.25;0.90;;;;;;;30.51;32.69;102678.22;5094791;28;20429;-62
2022/08/09 11:51:18;;;;;;;1.63;0.90;;;;;;;30.75;33.19;102681.63;5095209;28;20044;-59
2022/08/09 11:54:16;;;;;;;2.97;1.00;;;;;;;30.79;32.89;102673.97;5092894;28;20128;-62
2022/08/09 11:57:35;;;;;;;2.92;0.80;;;;;;;30.89;32.17;102666.31;5092084;28;20383;-62
2022/08/09 12:00:26;;;;;;;3.05;0.90;;;;;;;30.71;32.34;102677.63;5094767;28;20143;-62
2022/08/09 12:02:56;;;;;;;1.85;0.70;;;;;;;30.73;31.71;102672.81;5092404;28;20566;-62
2022/08/09 12:05:35;;;;;;;4.43;0.85;;;;;;;31.14;32.16;102671.41;5091964;28;20467;-59
2022/08/09 12:08:10;;;;;;;3.05;0.98;;;;;;;31.15;32.02;102668.50;5094620;28;20050;-60
2022/08/09 12:10:49;;;;;;;2.08;0.80;;;;;;;30.98;30.99;102661.63;5094378;28;20047;-63
2022/08/09 12:13:32;;;;;;;3.33;1.10;;;;;;;31.37;32.07;102665.78;5092508;28;20056;-59